sensor_id;sensor_type;location;lat;lon;timestamp;P1;durP1;ratioP1;P2;durP2;ratioP2
842;SDS011;407;48.884;9.126;2023-04-06T00:01:36;15.18;;;7.78;;
842;SDS011;407;48.884;9.126;2023-04-06T00:04:02;15.48;;;7.70;;
842;SDS011;407;48.884;9.126;2023-04-06T00:06:28;15.83;;;7.93;;
842;SDS011;407;48.884;9.126;2023-04-06T00:08:53;15.70;;;7.30;;
842;SDS011;407;48.884;9.126;2023-04-06T00:11:22;17.30;;;7.32;;
842;SDS011;407;48.884;9.126;2023-04-06T00:13:47;18.52;;;7.78;;
842;SDS011;407;48.884;9.126;2023-04-06T00:16:13;18.00;;;7.65;;
842;SDS011;407;48.884;9.126;2023-04-06T00:18:40;16.23;;;7.50;;
842;SDS011;407;48.884;9.126;2023-04-06T00:21:06;20.08;;;8.07;;
842;SDS011;407;48.884;9.126;2023-04-06T00:23:31;21.43;;;8.50;;
842;SDS011;407;48.884;9.126;2023-04-06T00:25:57;14.90;;;7.28;;
842;SDS011;407;48.884;9.126;2023-04-06T00:28:23;15.73;;;7.38;;
842;SDS011;407;48.884;9.126;2023-04-06T00:30:52;16.85;;;8.38;;
842;SDS011;407;48.884;9.126;2023-04-06T00:33:19;16.67;;;7.30;;
842;SDS011;407;48.884;9.126;2023-04-06T00:35:45;14.68;;;7.00;;
842;SDS011;407;48.884;9.126;2023-04-06T00:38:11;14.38;;;6.93;;
842;SDS011;407;48.884;9.126;2023-04-06T00:40:37;19.47;;;8.20;;
842;SDS011;407;48.884;9.126;2023-04-06T00:43:05;20.03;;;10.17;;
842;SDS011;407;48.884;9.126;2023-04-06T00:45:31;22.08;;;9.93;;
842;SDS011;407;48.884;9.126;2023-04-06T00:47:57;17.08;;;8.27;;
842;SDS011;407;48.884;9.126;2023-04-06T00:50:23;17.50;;;7.90;;
842;SDS011;407;48.884;9.126;2023-04-06T00:52:48;17.52;;;8.13;;
842;SDS011;407;48.884;9.126;2023-04-06T00:55:14;16.97;;;7.40;;
842;SDS011;407;48.884;9.126;2023-04-06T00:57:40;18.20;;;8.40;;
842;SDS011;407;48.884;9.126;2023-04-06T01:00:06;16.08;;;7.78;;
842;SDS011;407;48.884;9.126;2023-04-06T01:02:32;16.60;;;7.70;;
842;SDS011;407;48.884;9.126;2023-04-06T01:04:57;15.15;;;7.10;;
842;SDS011;407;48.884;9.126;2023-04-06T01:07:23;17.55;;;7.90;;
842;SDS011;407;48.884;9.126;2023-04-06T01:09:49;16.30;;;6.78;;
842;SDS011;407;48.884;9.126;2023-04-06T01:12:15;15.07;;;7.25;;
842;SDS011;407;48.884;9.126;2023-04-06T01:14:41;20.33;;;7.90;;
842;SDS011;407;48.884;9.126;2023-04-06T01:17:06;14.27;;;6.80;;
842;SDS011;407;48.884;9.126;2023-04-06T01:19:32;18.70;;;8.20;;
842;SDS011;407;48.884;9.126;2023-04-06T01:21:58;18.00;;;7.20;;
842;SDS011;407;48.884;9.126;2023-04-06T01:24:23;17.37;;;7.13;;
842;SDS011;407;48.884;9.126;2023-04-06T01:26:49;16.20;;;7.32;;
842;SDS011;407;48.884;9.126;2023-04-06T01:29:16;17.15;;;7.63;;
842;SDS011;407;48.884;9.126;2023-04-06T01:31:42;21.98;;;7.68;;
842;SDS011;407;48.884;9.126;2023-04-06T01:34:07;15.77;;;7.67;;
842;SDS011;407;48.884;9.126;2023-04-06T01:36:33;14.50;;;7.13;;
842;SDS011;407;48.884;9.126;2023-04-06T01:38:59;15.98;;;6.80;;
842;SDS011;407;48.884;9.126;2023-04-06T01:41:24;18.98;;;7.50;;
842;SDS011;407;48.884;9.126;2023-04-06T01:43:51;18.13;;;7.50;;
842;SDS011;407;48.884;9.126;2023-04-06T01:46:19;15.00;;;7.60;;
842;SDS011;407;48.884;9.126;2023-04-06T01:48:45;17.43;;;7.80;;
842;SDS011;407;48.884;9.126;2023-04-06T01:51:11;17.20;;;7.43;;
842;SDS011;407;48.884;9.126;2023-04-06T01:53:36;16.10;;;7.90;;
842;SDS011;407;48.884;9.126;2023-04-06T01:56:02;18.90;;;8.60;;
842;SDS011;407;48.884;9.126;2023-04-06T01:58:28;18.00;;;7.50;;
842;SDS011;407;48.884;9.126;2023-04-06T02:00:53;15.20;;;7.20;;
842;SDS011;407;48.884;9.126;2023-04-06T02:03:19;19.90;;;8.45;;
842;SDS011;407;48.884;9.126;2023-04-06T02:05:45;15.45;;;6.70;;
842;SDS011;407;48.884;9.126;2023-04-06T02:08:10;15.83;;;7.30;;
842;SDS011;407;48.884;9.126;2023-04-06T02:10:36;15.40;;;6.93;;
842;SDS011;407;48.884;9.126;2023-04-06T02:13:01;18.13;;;7.50;;
842;SDS011;407;48.884;9.126;2023-04-06T02:15:27;17.67;;;7.67;;
842;SDS011;407;48.884;9.126;2023-04-06T02:17:53;16.70;;;7.00;;
842;SDS011;407;48.884;9.126;2023-04-06T02:20:18;16.75;;;7.63;;
842;SDS011;407;48.884;9.126;2023-04-06T02:22:45;17.27;;;7.70;;
842;SDS011;407;48.884;9.126;2023-04-06T02:25:10;16.55;;;8.18;;
842;SDS011;407;48.884;9.126;2023-04-06T02:27:36;18.40;;;7.72;;
842;SDS011;407;48.884;9.126;2023-04-06T02:30:03;20.45;;;7.70;;
842;SDS011;407;48.884;9.126;2023-04-06T02:32:29;15.75;;;7.50;;
842;SDS011;407;48.884;9.126;2023-04-06T02:34:55;18.27;;;7.90;;
842;SDS011;407;48.884;9.126;2023-04-06T02:37:21;17.30;;;7.90;;
842;SDS011;407;48.884;9.126;2023-04-06T02:39:48;13.98;;;6.80;;
842;SDS011;407;48.884;9.126;2023-04-06T02:42:13;17.77;;;8.00;;
842;SDS011;407;48.884;9.126;2023-04-06T02:44:40;15.80;;;7.30;;
842;SDS011;407;48.884;9.126;2023-04-06T02:47:06;14.82;;;7.15;;
842;SDS011;407;48.884;9.126;2023-04-06T02:49:32;18.50;;;7.73;;
842;SDS011;407;48.884;9.126;2023-04-06T02:51:57;16.10;;;7.50;;
842;SDS011;407;48.884;9.126;2023-04-06T02:54:23;19.88;;;8.55;;
842;SDS011;407;48.884;9.126;2023-04-06T02:56:49;15.50;;;7.40;;
842;SDS011;407;48.884;9.126;2023-04-06T02:59:15;18.33;;;8.60;;
842;SDS011;407;48.884;9.126;2023-04-06T03:01:41;16.73;;;7.25;;
842;SDS011;407;48.884;9.126;2023-04-06T03:04:07;15.15;;;8.23;;
842;SDS011;407;48.884;9.126;2023-04-06T03:06:33;16.07;;;7.90;;
842;SDS011;407;48.884;9.126;2023-04-06T03:08:58;15.70;;;7.37;;
842;SDS011;407;48.884;9.126;2023-04-06T03:11:24;16.23;;;7.07;;
842;SDS011;407;48.884;9.126;2023-04-06T03:13:51;16.80;;;7.50;;
842;SDS011;407;48.884;9.126;2023-04-06T03:16:17;19.50;;;7.97;;
842;SDS011;407;48.884;9.126;2023-04-06T03:18:42;19.87;;;8.20;;
842;SDS011;407;48.884;9.126;2023-04-06T03:21:10;20.60;;;8.05;;
842;SDS011;407;48.884;9.126;2023-04-06T03:23:35;17.35;;;7.70;;
842;SDS011;407;48.884;9.126;2023-04-06T03:26:01;16.50;;;7.70;;
842;SDS011;407;48.884;9.126;2023-04-06T03:28:27;20.48;;;8.75;;
842;SDS011;407;48.884;9.126;2023-04-06T03:30:53;14.93;;;7.00;;
842;SDS011;407;48.884;9.126;2023-04-06T03:33:19;16.90;;;7.53;;
842;SDS011;407;48.884;9.126;2023-04-06T03:35:45;18.40;;;7.80;;
842;SDS011;407;48.884;9.126;2023-04-06T03:38:10;18.80;;;7.67;;
842;SDS011;407;48.884;9.126;2023-04-06T03:40:36;23.92;;;8.50;;
842;SDS011;407;48.884;9.126;2023-04-06T03:43:02;15.70;;;8.13;;
842;SDS011;407;48.884;9.126;2023-04-06T03:45:27;18.23;;;8.77;;
842;SDS011;407;48.884;9.126;2023-04-06T03:47:53;17.50;;;8.50;;
842;SDS011;407;48.884;9.126;2023-04-06T03:50:20;18.48;;;8.38;;
842;SDS011;407;48.884;9.126;2023-04-06T03:52:45;19.33;;;8.95;;
842;SDS011;407;48.884;9.126;2023-04-06T03:55:11;19.58;;;8.40;;
842;SDS011;407;48.884;9.126;2023-04-06T03:57:37;20.20;;;7.27;;
842;SDS011;407;48.884;9.126;2023-04-06T04:00:03;17.92;;;8.00;;
842;SDS011;407;48.884;9.126;2023-04-06T04:02:29;16.77;;;7.25;;
842;SDS011;407;48.884;9.126;2023-04-06T04:04:54;17.07;;;8.10;;
842;SDS011;407;48.884;9.126;2023-04-06T04:07:20;16.75;;;7.40;;
842;SDS011;407;48.884;9.126;2023-04-06T04:09:47;17.63;;;8.15;;
842;SDS011;407;48.884;9.126;2023-04-06T04:12:13;14.48;;;6.50;;
842;SDS011;407;48.884;9.126;2023-04-06T04:14:39;24.30;;;8.52;;
842;SDS011;407;48.884;9.126;2023-04-06T04:17:05;16.55;;;7.25;;
842;SDS011;407;48.884;9.126;2023-04-06T04:19:30;16.52;;;8.15;;
842;SDS011;407;48.884;9.126;2023-04-06T04:21:56;18.23;;;7.82;;
842;SDS011;407;48.884;9.126;2023-04-06T04:24:22;17.83;;;7.40;;
842;SDS011;407;48.884;9.126;2023-04-06T04:26:47;22.48;;;8.15;;
842;SDS011;407;48.884;9.126;2023-04-06T04:29:13;19.25;;;8.05;;
842;SDS011;407;48.884;9.126;2023-04-06T04:31:39;17.08;;;6.57;;
842;SDS011;407;48.884;9.126;2023-04-06T04:34:05;16.47;;;7.50;;
842;SDS011;407;48.884;9.126;2023-04-06T04:36:31;18.38;;;7.88;;
842;SDS011;407;48.884;9.126;2023-04-06T04:39:03;19.55;;;7.35;;
842;SDS011;407;48.884;9.126;2023-04-06T04:41:29;16.38;;;7.07;;
842;SDS011;407;48.884;9.126;2023-04-06T04:43:55;17.40;;;6.93;;
842;SDS011;407;48.884;9.126;2023-04-06T04:46:21;17.60;;;7.63;;
842;SDS011;407;48.884;9.126;2023-04-06T04:48:47;14.93;;;7.15;;
842;SDS011;407;48.884;9.126;2023-04-06T04:51:12;17.35;;;7.30;;
842;SDS011;407;48.884;9.126;2023-04-06T04:53:38;15.00;;;6.77;;
842;SDS011;407;48.884;9.126;2023-04-06T04:56:03;16.97;;;7.90;;
842;SDS011;407;48.884;9.126;2023-04-06T04:58:29;16.73;;;6.25;;
842;SDS011;407;48.884;9.126;2023-04-06T05:00:55;17.52;;;7.57;;
842;SDS011;407;48.884;9.126;2023-04-06T05:03:21;17.33;;;7.83;;
842;SDS011;407;48.884;9.126;2023-04-06T05:05:48;18.00;;;7.90;;
842;SDS011;407;48.884;9.126;2023-04-06T05:08:14;17.87;;;8.33;;
842;SDS011;407;48.884;9.126;2023-04-06T05:10:40;16.07;;;7.67;;
842;SDS011;407;48.884;9.126;2023-04-06T05:13:06;16.90;;;8.23;;
842;SDS011;407;48.884;9.126;2023-04-06T05:15:32;16.30;;;7.70;;
842;SDS011;407;48.884;9.126;2023-04-06T05:18:00;17.67;;;8.27;;
842;SDS011;407;48.884;9.126;2023-04-06T05:20:26;17.60;;;8.20;;
842;SDS011;407;48.884;9.126;2023-04-06T05:22:52;16.35;;;7.32;;
842;SDS011;407;48.884;9.126;2023-04-06T05:25:20;17.23;;;7.90;;
842;SDS011;407;48.884;9.126;2023-04-06T05:27:46;17.23;;;8.77;;
842;SDS011;407;48.884;9.126;2023-04-06T05:30:11;16.90;;;7.90;;
842;SDS011;407;48.884;9.126;2023-04-06T05:32:37;19.63;;;8.35;;
842;SDS011;407;48.884;9.126;2023-04-06T05:35:03;15.57;;;7.32;;
842;SDS011;407;48.884;9.126;2023-04-06T05:37:29;18.92;;;8.30;;
842;SDS011;407;48.884;9.126;2023-04-06T05:39:55;18.20;;;8.50;;
842;SDS011;407;48.884;9.126;2023-04-06T05:42:22;17.77;;;9.13;;
842;SDS011;407;48.884;9.126;2023-04-06T05:44:47;17.05;;;8.35;;
842;SDS011;407;48.884;9.126;2023-04-06T05:47:13;18.73;;;7.78;;
842;SDS011;407;48.884;9.126;2023-04-06T05:49:39;17.33;;;8.67;;
842;SDS011;407;48.884;9.126;2023-04-06T05:52:06;20.55;;;9.32;;
842;SDS011;407;48.884;9.126;2023-04-06T05:54:32;16.03;;;8.30;;
842;SDS011;407;48.884;9.126;2023-04-06T05:56:57;20.05;;;8.90;;
842;SDS011;407;48.884;9.126;2023-04-06T05:59:23;21.33;;;9.57;;
842;SDS011;407;48.884;9.126;2023-04-06T06:01:49;19.30;;;9.23;;
842;SDS011;407;48.884;9.126;2023-04-06T06:04:15;17.33;;;9.00;;
842;SDS011;407;48.884;9.126;2023-04-06T06:06:41;16.30;;;8.40;;
842;SDS011;407;48.884;9.126;2023-04-06T06:09:07;18.50;;;9.00;;
842;SDS011;407;48.884;9.126;2023-04-06T06:11:32;18.00;;;9.17;;
842;SDS011;407;48.884;9.126;2023-04-06T06:13:58;17.10;;;8.00;;
842;SDS011;407;48.884;9.126;2023-04-06T06:16:25;19.17;;;9.30;;
842;SDS011;407;48.884;9.126;2023-04-06T06:18:51;18.33;;;9.90;;
842;SDS011;407;48.884;9.126;2023-04-06T06:21:16;19.15;;;9.95;;
842;SDS011;407;48.884;9.126;2023-04-06T06:23:42;18.00;;;9.77;;
842;SDS011;407;48.884;9.126;2023-04-06T06:26:08;20.33;;;9.45;;
842;SDS011;407;48.884;9.126;2023-04-06T06:28:33;21.53;;;10.03;;
842;SDS011;407;48.884;9.126;2023-04-06T06:30:59;19.40;;;10.48;;
842;SDS011;407;48.884;9.126;2023-04-06T06:33:26;21.13;;;10.70;;
842;SDS011;407;48.884;9.126;2023-04-06T06:35:51;16.87;;;9.60;;
842;SDS011;407;48.884;9.126;2023-04-06T06:38:17;23.88;;;11.95;;
842;SDS011;407;48.884;9.126;2023-04-06T06:40:44;18.85;;;11.20;;
842;SDS011;407;48.884;9.126;2023-04-06T06:43:11;17.45;;;10.50;;
842;SDS011;407;48.884;9.126;2023-04-06T06:45:36;17.53;;;10.73;;
842;SDS011;407;48.884;9.126;2023-04-06T06:48:02;22.35;;;12.10;;
842;SDS011;407;48.884;9.126;2023-04-06T06:50:28;23.35;;;11.70;;
842;SDS011;407;48.884;9.126;2023-04-06T06:52:53;17.90;;;10.27;;
842;SDS011;407;48.884;9.126;2023-04-06T06:55:19;20.38;;;11.85;;
842;SDS011;407;48.884;9.126;2023-04-06T06:57:45;20.83;;;11.53;;
842;SDS011;407;48.884;9.126;2023-04-06T07:00:11;17.67;;;11.13;;
842;SDS011;407;48.884;9.126;2023-04-06T07:02:39;20.58;;;11.05;;
842;SDS011;407;48.884;9.126;2023-04-06T07:05:05;21.23;;;11.73;;
842;SDS011;407;48.884;9.126;2023-04-06T07:07:31;19.17;;;12.40;;
842;SDS011;407;48.884;9.126;2023-04-06T07:09:58;19.55;;;12.13;;
842;SDS011;407;48.884;9.126;2023-04-06T07:12:24;18.98;;;10.48;;
842;SDS011;407;48.884;9.126;2023-04-06T07:14:50;17.45;;;9.73;;
842;SDS011;407;48.884;9.126;2023-04-06T07:17:16;20.10;;;11.00;;
842;SDS011;407;48.884;9.126;2023-04-06T07:19:41;16.90;;;10.68;;
842;SDS011;407;48.884;9.126;2023-04-06T07:22:07;22.30;;;11.40;;
842;SDS011;407;48.884;9.126;2023-04-06T07:24:33;18.73;;;10.13;;
842;SDS011;407;48.884;9.126;2023-04-06T07:26:58;17.17;;;10.60;;
842;SDS011;407;48.884;9.126;2023-04-06T07:29:25;21.67;;;11.10;;
842;SDS011;407;48.884;9.126;2023-04-06T07:31:52;20.48;;;10.90;;
842;SDS011;407;48.884;9.126;2023-04-06T07:34:17;20.13;;;10.80;;
842;SDS011;407;48.884;9.126;2023-04-06T07:36:43;23.05;;;11.45;;
842;SDS011;407;48.884;9.126;2023-04-06T07:39:09;18.60;;;10.60;;
842;SDS011;407;48.884;9.126;2023-04-06T07:41:35;18.83;;;10.30;;
842;SDS011;407;48.884;9.126;2023-04-06T07:44:01;18.30;;;13.87;;
842;SDS011;407;48.884;9.126;2023-04-06T07:46:27;23.95;;;15.43;;
842;SDS011;407;48.884;9.126;2023-04-06T07:48:53;20.58;;;14.77;;
842;SDS011;407;48.884;9.126;2023-04-06T07:51:18;19.67;;;14.53;;
842;SDS011;407;48.884;9.126;2023-04-06T07:53:44;22.48;;;16.33;;
842;SDS011;407;48.884;9.126;2023-04-06T07:56:12;17.65;;;14.35;;
842;SDS011;407;48.884;9.126;2023-04-06T07:58:37;23.00;;;16.20;;
842;SDS011;407;48.884;9.126;2023-04-06T08:01:03;19.48;;;15.55;;
842;SDS011;407;48.884;9.126;2023-04-06T08:03:29;21.87;;;16.50;;
842;SDS011;407;48.884;9.126;2023-04-06T08:05:55;19.08;;;16.15;;
842;SDS011;407;48.884;9.126;2023-04-06T08:08:20;19.38;;;15.43;;
842;SDS011;407;48.884;9.126;2023-04-06T08:10:47;19.08;;;15.10;;
842;SDS011;407;48.884;9.126;2023-04-06T08:13:13;19.30;;;15.20;;
842;SDS011;407;48.884;9.126;2023-04-06T08:15:40;19.73;;;16.08;;
842;SDS011;407;48.884;9.126;2023-04-06T08:18:06;23.35;;;19.90;;
842;SDS011;407;48.884;9.126;2023-04-06T08:20:31;20.00;;;15.90;;
842;SDS011;407;48.884;9.126;2023-04-06T08:22:57;22.70;;;16.43;;
842;SDS011;407;48.884;9.126;2023-04-06T08:25:23;20.13;;;17.90;;
842;SDS011;407;48.884;9.126;2023-04-06T08:27:48;20.60;;;14.02;;
842;SDS011;407;48.884;9.126;2023-04-06T08:30:14;21.63;;;16.33;;
842;SDS011;407;48.884;9.126;2023-04-06T08:32:40;18.00;;;13.77;;
842;SDS011;407;48.884;9.126;2023-04-06T08:35:07;18.27;;;16.27;;
842;SDS011;407;48.884;9.126;2023-04-06T08:37:33;19.17;;;17.07;;
842;SDS011;407;48.884;9.126;2023-04-06T08:39:58;19.38;;;16.02;;
842;SDS011;407;48.884;9.126;2023-04-06T08:42:25;16.80;;;14.50;;
842;SDS011;407;48.884;9.126;2023-04-06T08:44:53;17.17;;;15.30;;
842;SDS011;407;48.884;9.126;2023-04-06T08:47:20;17.48;;;15.10;;
842;SDS011;407;48.884;9.126;2023-04-06T08:49:47;19.10;;;15.20;;
842;SDS011;407;48.884;9.126;2023-04-06T08:52:13;16.27;;;14.57;;
842;SDS011;407;48.884;9.126;2023-04-06T08:54:42;16.85;;;14.93;;
842;SDS011;407;48.884;9.126;2023-04-06T08:57:08;20.23;;;14.63;;
842;SDS011;407;48.884;9.126;2023-04-06T08:59:34;17.90;;;15.35;;
842;SDS011;407;48.884;9.126;2023-04-06T09:02:02;15.65;;;13.95;;
842;SDS011;407;48.884;9.126;2023-04-06T09:04:29;15.82;;;13.60;;
842;SDS011;407;48.884;9.126;2023-04-06T09:06:55;17.35;;;14.05;;
842;SDS011;407;48.884;9.126;2023-04-06T09:09:21;16.00;;;14.30;;
842;SDS011;407;48.884;9.126;2023-04-06T09:11:47;19.73;;;16.60;;
842;SDS011;407;48.884;9.126;2023-04-06T09:14:15;14.90;;;11.90;;
842;SDS011;407;48.884;9.126;2023-04-06T09:16:42;16.47;;;14.67;;
842;SDS011;407;48.884;9.126;2023-04-06T09:19:10;16.05;;;14.30;;
842;SDS011;407;48.884;9.126;2023-04-06T09:21:37;16.65;;;14.75;;
842;SDS011;407;48.884;9.126;2023-04-06T09:24:06;16.70;;;14.97;;
842;SDS011;407;48.884;9.126;2023-04-06T09:26:43;17.05;;;15.25;;
842;SDS011;407;48.884;9.126;2023-04-06T09:29:21;17.27;;;13.63;;
842;SDS011;407;48.884;9.126;2023-04-06T09:31:47;19.95;;;14.13;;
842;SDS011;407;48.884;9.126;2023-04-06T09:34:20;16.48;;;14.30;;
842;SDS011;407;48.884;9.126;2023-04-06T09:36:47;16.67;;;14.68;;
842;SDS011;407;48.884;9.126;2023-04-06T09:39:14;16.57;;;14.13;;
842;SDS011;407;48.884;9.126;2023-04-06T09:41:41;16.95;;;14.32;;
842;SDS011;407;48.884;9.126;2023-04-06T09:46:34;15.43;;;13.68;;
842;SDS011;407;48.884;9.126;2023-04-06T09:49:02;18.73;;;13.80;;
842;SDS011;407;48.884;9.126;2023-04-06T09:51:30;16.38;;;14.02;;
842;SDS011;407;48.884;9.126;2023-04-06T09:54:06;16.15;;;13.00;;
842;SDS011;407;48.884;9.126;2023-04-06T09:56:51;18.63;;;13.38;;
842;SDS011;407;48.884;9.126;2023-04-06T10:08:08;17.35;;;13.82;;
842;SDS011;407;48.884;9.126;2023-04-06T10:10:35;15.70;;;13.23;;
842;SDS011;407;48.884;9.126;2023-04-06T10:13:01;15.43;;;13.55;;
842;SDS011;407;48.884;9.126;2023-04-06T10:15:28;17.33;;;13.15;;
842;SDS011;407;48.884;9.126;2023-04-06T10:17:55;15.63;;;13.00;;
842;SDS011;407;48.884;9.126;2023-04-06T10:23:02;15.73;;;13.90;;
842;SDS011;407;48.884;9.126;2023-04-06T10:25:33;15.80;;;14.07;;
842;SDS011;407;48.884;9.126;2023-04-06T10:28:06;18.98;;;14.45;;
842;SDS011;407;48.884;9.126;2023-04-06T10:30:33;17.38;;;14.23;;
842;SDS011;407;48.884;9.126;2023-04-06T10:33:00;17.00;;;14.13;;
842;SDS011;407;48.884;9.126;2023-04-06T10:35:37;18.55;;;14.00;;
842;SDS011;407;48.884;9.126;2023-04-06T10:38:03;14.80;;;12.50;;
842;SDS011;407;48.884;9.126;2023-04-06T10:40:30;17.38;;;13.60;;
842;SDS011;407;48.884;9.126;2023-04-06T10:43:08;16.83;;;12.68;;
842;SDS011;407;48.884;9.126;2023-04-06T10:45:35;18.20;;;14.23;;
842;SDS011;407;48.884;9.126;2023-04-06T10:48:13;19.50;;;14.00;;
842;SDS011;407;48.884;9.126;2023-04-06T10:50:41;16.95;;;13.35;;
842;SDS011;407;48.884;9.126;2023-04-06T10:53:08;23.00;;;13.67;;
842;SDS011;407;48.884;9.126;2023-04-06T10:55:34;19.25;;;13.13;;
842;SDS011;407;48.884;9.126;2023-04-06T10:58:05;18.00;;;12.80;;
842;SDS011;407;48.884;9.126;2023-04-06T11:00:32;14.75;;;12.45;;
842;SDS011;407;48.884;9.126;2023-04-06T11:03:00;17.07;;;13.10;;
842;SDS011;407;48.884;9.126;2023-04-06T11:05:27;19.90;;;14.13;;
842;SDS011;407;48.884;9.126;2023-04-06T11:07:52;17.52;;;12.85;;
842;SDS011;407;48.884;9.126;2023-04-06T11:10:21;18.27;;;13.45;;
842;SDS011;407;48.884;9.126;2023-04-06T11:12:52;16.92;;;13.77;;
842;SDS011;407;48.884;9.126;2023-04-06T11:15:19;17.50;;;12.32;;
842;SDS011;407;48.884;9.126;2023-04-06T11:17:45;16.80;;;12.05;;
842;SDS011;407;48.884;9.126;2023-04-06T11:20:11;18.13;;;13.10;;
842;SDS011;407;48.884;9.126;2023-04-06T11:22:59;17.45;;;12.65;;
842;SDS011;407;48.884;9.126;2023-04-06T11:25:28;17.67;;;13.30;;
842;SDS011;407;48.884;9.126;2023-04-06T11:27:56;20.00;;;12.85;;
842;SDS011;407;48.884;9.126;2023-04-06T11:30:22;18.70;;;12.55;;
842;SDS011;407;48.884;9.126;2023-04-06T11:32:48;17.10;;;12.83;;
842;SDS011;407;48.884;9.126;2023-04-06T11:35:20;17.63;;;13.02;;
842;SDS011;407;48.884;9.126;2023-04-06T11:37:48;17.30;;;13.00;;
842;SDS011;407;48.884;9.126;2023-04-06T11:40:14;17.13;;;12.00;;
842;SDS011;407;48.884;9.126;2023-04-06T11:42:40;17.03;;;12.37;;
842;SDS011;407;48.884;9.126;2023-04-06T11:45:07;21.85;;;13.02;;
842;SDS011;407;48.884;9.126;2023-04-06T11:47:34;18.38;;;13.10;;
842;SDS011;407;48.884;9.126;2023-04-06T11:50:07;16.45;;;12.50;;
842;SDS011;407;48.884;9.126;2023-04-06T11:52:38;17.80;;;12.30;;
842;SDS011;407;48.884;9.126;2023-04-06T11:55:12;15.82;;;12.60;;
842;SDS011;407;48.884;9.126;2023-04-06T11:57:40;16.83;;;12.25;;
842;SDS011;407;48.884;9.126;2023-04-06T12:00:08;16.02;;;11.40;;
842;SDS011;407;48.884;9.126;2023-04-06T12:02:35;17.10;;;11.93;;
842;SDS011;407;48.884;9.126;2023-04-06T12:05:02;14.40;;;11.13;;
842;SDS011;407;48.884;9.126;2023-04-06T12:07:31;16.57;;;11.80;;
842;SDS011;407;48.884;9.126;2023-04-06T12:09:58;16.50;;;12.25;;
842;SDS011;407;48.884;9.126;2023-04-06T12:12:24;14.75;;;11.98;;
842;SDS011;407;48.884;9.126;2023-04-06T12:14:50;16.23;;;12.73;;
842;SDS011;407;48.884;9.126;2023-04-06T12:17:16;16.02;;;12.02;;
842;SDS011;407;48.884;9.126;2023-04-06T12:19:42;17.75;;;12.90;;
842;SDS011;407;48.884;9.126;2023-04-06T12:22:08;17.70;;;12.80;;
842;SDS011;407;48.884;9.126;2023-04-06T12:24:34;18.55;;;13.10;;
842;SDS011;407;48.884;9.126;2023-04-06T12:26:59;17.07;;;12.70;;
842;SDS011;407;48.884;9.126;2023-04-06T12:29:26;17.17;;;12.32;;
842;SDS011;407;48.884;9.126;2023-04-06T12:31:52;16.10;;;11.87;;
842;SDS011;407;48.884;9.126;2023-04-06T12:34:18;18.55;;;12.13;;
842;SDS011;407;48.884;9.126;2023-04-06T12:36:43;15.40;;;11.10;;
842;SDS011;407;48.884;9.126;2023-04-06T12:39:09;16.05;;;11.73;;
842;SDS011;407;48.884;9.126;2023-04-06T12:41:36;15.93;;;12.13;;
842;SDS011;407;48.884;9.126;2023-04-06T12:44:02;15.85;;;12.65;;
842;SDS011;407;48.884;9.126;2023-04-06T12:46:28;15.57;;;12.40;;
842;SDS011;407;48.884;9.126;2023-04-06T12:48:57;16.33;;;12.20;;
842;SDS011;407;48.884;9.126;2023-04-06T12:51:24;14.60;;;11.95;;
842;SDS011;407;48.884;9.126;2023-04-06T12:53:52;14.23;;;12.00;;
842;SDS011;407;48.884;9.126;2023-04-06T12:56:18;17.60;;;13.20;;
842;SDS011;407;48.884;9.126;2023-04-06T12:58:46;15.70;;;12.57;;
842;SDS011;407;48.884;9.126;2023-04-06T13:01:12;14.60;;;11.40;;
842;SDS011;407;48.884;9.126;2023-04-06T13:03:38;16.60;;;12.15;;
842;SDS011;407;48.884;9.126;2023-04-06T13:06:05;15.40;;;11.90;;
842;SDS011;407;48.884;9.126;2023-04-06T13:08:31;15.90;;;11.30;;
842;SDS011;407;48.884;9.126;2023-04-06T13:10:56;14.95;;;10.80;;
842;SDS011;407;48.884;9.126;2023-04-06T13:13:26;13.13;;;10.30;;
842;SDS011;407;48.884;9.126;2023-04-06T13:15:53;14.55;;;10.93;;
842;SDS011;407;48.884;9.126;2023-04-06T13:18:20;14.33;;;11.40;;
842;SDS011;407;48.884;9.126;2023-04-06T13:20:47;14.90;;;11.77;;
842;SDS011;407;48.884;9.126;2023-04-06T13:23:13;15.40;;;11.60;;
842;SDS011;407;48.884;9.126;2023-04-06T13:25:39;13.67;;;11.80;;
842;SDS011;407;48.884;9.126;2023-04-06T13:28:05;14.45;;;12.05;;
842;SDS011;407;48.884;9.126;2023-04-06T13:30:30;16.15;;;11.70;;
842;SDS011;407;48.884;9.126;2023-04-06T13:32:56;15.90;;;12.03;;
842;SDS011;407;48.884;9.126;2023-04-06T13:35:22;15.82;;;12.55;;
842;SDS011;407;48.884;9.126;2023-04-06T13:37:50;13.90;;;10.40;;
842;SDS011;407;48.884;9.126;2023-04-06T13:40:17;14.52;;;10.80;;
842;SDS011;407;48.884;9.126;2023-04-06T13:42:43;13.77;;;10.70;;
842;SDS011;407;48.884;9.126;2023-04-06T13:45:10;13.77;;;9.95;;
842;SDS011;407;48.884;9.126;2023-04-06T13:47:36;13.40;;;11.13;;
842;SDS011;407;48.884;9.126;2023-04-06T13:50:01;13.05;;;10.50;;
842;SDS011;407;48.884;9.126;2023-04-06T13:52:28;14.98;;;10.75;;
842;SDS011;407;48.884;9.126;2023-04-06T13:54:54;15.80;;;10.98;;
842;SDS011;407;48.884;9.126;2023-04-06T13:57:19;12.80;;;10.77;;
842;SDS011;407;48.884;9.126;2023-04-06T13:59:45;14.43;;;10.47;;
842;SDS011;407;48.884;9.126;2023-04-06T14:02:11;16.10;;;11.23;;
842;SDS011;407;48.884;9.126;2023-04-06T14:04:36;16.52;;;11.35;;
842;SDS011;407;48.884;9.126;2023-04-06T14:07:03;14.35;;;11.45;;
842;SDS011;407;48.884;9.126;2023-04-06T14:09:32;13.90;;;12.00;;
842;SDS011;407;48.884;9.126;2023-04-06T14:11:58;13.90;;;11.13;;
842;SDS011;407;48.884;9.126;2023-04-06T14:14:24;17.70;;;11.45;;
842;SDS011;407;48.884;9.126;2023-04-06T14:16:50;13.82;;;10.90;;
842;SDS011;407;48.884;9.126;2023-04-06T14:19:16;14.60;;;10.90;;
842;SDS011;407;48.884;9.126;2023-04-06T14:21:43;14.68;;;10.43;;
842;SDS011;407;48.884;9.126;2023-04-06T14:24:09;17.25;;;11.63;;
842;SDS011;407;48.884;9.126;2023-04-06T14:26:36;15.18;;;11.00;;
842;SDS011;407;48.884;9.126;2023-04-06T14:29:02;14.90;;;11.65;;
842;SDS011;407;48.884;9.126;2023-04-06T14:31:29;13.50;;;10.43;;
842;SDS011;407;48.884;9.126;2023-04-06T14:33:55;14.40;;;10.60;;
842;SDS011;407;48.884;9.126;2023-04-06T14:36:21;14.93;;;11.32;;
842;SDS011;407;48.884;9.126;2023-04-06T14:38:47;12.50;;;10.60;;
842;SDS011;407;48.884;9.126;2023-04-06T14:41:16;14.43;;;11.00;;
842;SDS011;407;48.884;9.126;2023-04-06T14:43:48;14.90;;;10.90;;
842;SDS011;407;48.884;9.126;2023-04-06T14:46:14;15.57;;;11.20;;
842;SDS011;407;48.884;9.126;2023-04-06T14:48:42;13.93;;;11.30;;
842;SDS011;407;48.884;9.126;2023-04-06T14:51:09;14.80;;;11.18;;
842;SDS011;407;48.884;9.126;2023-04-06T14:53:36;15.07;;;11.00;;
842;SDS011;407;48.884;9.126;2023-04-06T14:56:02;16.52;;;11.90;;
842;SDS011;407;48.884;9.126;2023-04-06T14:58:28;15.30;;;11.48;;
842;SDS011;407;48.884;9.126;2023-04-06T15:00:56;14.83;;;11.23;;
842;SDS011;407;48.884;9.126;2023-04-06T15:03:27;13.02;;;11.00;;
842;SDS011;407;48.884;9.126;2023-04-06T15:05:54;16.70;;;12.18;;
842;SDS011;407;48.884;9.126;2023-04-06T15:08:21;17.10;;;12.70;;
842;SDS011;407;48.884;9.126;2023-04-06T15:10:48;14.98;;;12.48;;
842;SDS011;407;48.884;9.126;2023-04-06T15:13:14;17.58;;;11.93;;
842;SDS011;407;48.884;9.126;2023-04-06T15:15:40;14.38;;;11.80;;
842;SDS011;407;48.884;9.126;2023-04-06T15:18:07;17.77;;;12.60;;
842;SDS011;407;48.884;9.126;2023-04-06T15:20:32;15.40;;;12.10;;
842;SDS011;407;48.884;9.126;2023-04-06T15:22:58;16.93;;;11.60;;
842;SDS011;407;48.884;9.126;2023-04-06T15:25:25;15.32;;;11.45;;
842;SDS011;407;48.884;9.126;2023-04-06T15:27:51;16.20;;;11.10;;
842;SDS011;407;48.884;9.126;2023-04-06T15:30:17;13.35;;;10.80;;
842;SDS011;407;48.884;9.126;2023-04-06T15:32:52;14.35;;;11.55;;